Time;durP1;ratioP1;P1;durP2;ratioP2;P2;SDS_P1;SDS_P2;PMS_P1;PMS_P2;Temp;Humidity;BMP_temperature;BMP_pressure;BME280_temperature;BME280_humidity;BME280_pressure;Samples;Min_cycle;Max_cycle;Signal;HPM_P1;HPM_P2
2022/08/16 00:00:53;;;;;;;10.57;8.47;;;24.30;99.90;;;;;;6158560;23;20488;-93
2022/08/16 00:03:19;;;;;;;9.73;7.80;;;24.20;99.90;;;;;;6158285;23;20463;-93
2022/08/16 00:05:45;;;;;;;10.37;8.53;;;24.20;99.90;;;;;;6157911;23;20429;-93
2022/08/16 00:08:11;;;;;;;9.30;7.50;;;24.20;99.90;;;;;;6158580;23;20435;-94
2022/08/16 00:10:37;;;;;;;9.13;7.50;;;24.20;99.90;;;;;;6157982;23;20404;-93
2022/08/16 00:13:06;;;;;;;8.73;7.40;;;24.10;99.90;;;;;;6158195;23;20232;-93
2022/08/16 00:15:39;;;;;;;9.20;6.93;;;24.10;99.90;;;;;;6159384;23;20439;-93
2022/08/16 00:18:05;;;;;;;8.10;7.17;;;24.10;99.90;;;;;;6159601;23;20849;-93
2022/08/16 00:20:32;;;;;;;9.60;7.30;;;24.00;99.90;;;;;;6156947;23;20483;-93
2022/08/16 00:22:58;;;;;;;9.80;7.77;;;24.00;99.90;;;;;;6158997;23;20185;-92
2022/08/16 00:25:25;;;;;;;9.23;7.47;;;24.00;99.90;;;;;;6159749;23;20408;-93
2022/08/16 00:27:51;;;;;;;9.67;7.67;;;23.90;99.90;;;;;;6156334;23;20384;-92
2022/08/16 00:30:19;;;;;;;9.17;6.60;;;23.90;99.90;;;;;;6156288;23;20732;-93
2022/08/16 00:32:47;;;;;;;9.83;7.70;;;23.90;99.90;;;;;;6156299;23;20375;-93
2022/08/16 00:35:22;;;;;;;9.53;7.80;;;23.90;99.90;;;;;;6157736;23;20408;-93
2022/08/16 00:37:48;;;;;;;8.90;7.80;;;23.80;99.90;;;;;;6156527;23;20979;-93
2022/08/16 00:40:35;;;;;;;9.27;7.23;;;23.80;99.90;;;;;;6156900;23;20415;-92
2022/08/16 00:43:06;;;;;;;10.80;7.57;;;23.80;99.90;;;;;;6156895;23;20410;-93
2022/08/16 00:45:40;;;;;;;9.43;7.63;;;23.80;99.90;;;;;;6157457;23;20517;-94
2022/08/16 00:48:09;;;;;;;10.17;7.50;;;23.70;99.90;;;;;;6157256;23;20383;-93
2022/08/16 00:50:38;;;;;;;9.70;7.73;;;23.80;99.90;;;;;;6157308;23;20912;-94
2022/08/16 00:53:06;;;;;;;8.40;7.30;;;23.70;99.90;;;;;;6159149;23;20394;-93
2022/08/16 00:55:34;;;;;;;8.93;7.83;;;23.70;99.90;;;;;;6162441;23;20411;-93
2022/08/16 00:57:59;;;;;;;10.63;7.70;;;23.70;99.90;;;;;;6164145;23;20411;-93
2022/08/16 01:00:27;;;;;;;10.40;8.60;;;23.70;99.90;;;;;;6157610;23;20495;-93
2022/08/16 01:02:55;;;;;;;10.47;7.93;;;23.70;99.90;;;;;;6159112;23;20166;-93
2022/08/16 01:05:21;;;;;;;9.30;7.73;;;23.60;99.90;;;;;;6160747;23;20435;-93
2022/08/16 01:07:47;;;;;;;10.03;7.80;;;23.60;99.90;;;;;;6159835;23;20440;-93
2022/08/16 01:10:14;;;;;;;8.60;7.20;;;23.50;99.90;;;;;;6160192;23;20180;-92
2022/08/16 01:12:39;;;;;;;10.03;8.00;;;23.50;99.90;;;;;;6160267;23;20449;-93
2022/08/16 01:15:06;;;;;;;9.33;7.40;;;23.50;99.90;;;;;;6156876;23;20474;-92
2022/08/16 01:17:33;;;;;;;10.33;8.17;;;23.40;99.90;;;;;;6156732;23;20551;-93
2022/08/16 01:20:03;;;;;;;10.60;7.47;;;23.40;99.90;;;;;;6157649;23;20900;-92
2022/08/16 01:22:56;;;;;;;10.20;7.50;;;23.40;99.90;;;;;;6156788;23;20419;-92
2022/08/16 01:25:27;;;;;;;9.77;7.83;;;23.40;99.90;;;;;;6156744;23;20441;-93
2022/08/16 01:27:55;;;;;;;10.47;7.60;;;23.40;99.90;;;;;;6159435;23;20444;-92
2022/08/16 01:30:26;;;;;;;11.87;8.30;;;23.40;99.90;;;;;;6158330;23;20876;-92
2022/08/16 01:32:54;;;;;;;11.03;7.90;;;23.30;99.90;;;;;;6158711;23;20390;-92
2022/08/16 01:35:50;;;;;;;9.70;7.10;;;23.30;99.90;;;;;;6159979;23;20420;-93
2022/08/16 01:38:22;;;;;;;9.67;7.70;;;23.30;99.90;;;;;;6148078;23;20415;-91
2022/08/16 01:40:51;;;;;;;11.13;7.30;;;23.30;99.90;;;;;;6174241;23;20436;-92
2022/08/16 01:43:17;;;;;;;8.70;6.90;;;23.30;99.90;;;;;;6158560;23;20394;-93
2022/08/16 01:45:43;;;;;;;12.03;7.77;;;23.30;99.90;;;;;;6160079;23;20417;-92
2022/08/16 01:48:10;;;;;;;9.93;7.60;;;23.30;99.90;;;;;;6158453;23;20730;-92
2022/08/16 01:50:37;;;;;;;9.70;7.63;;;23.20;99.90;;;;;;6157996;23;20430;-93
2022/08/16 01:53:03;;;;;;;10.30;8.33;;;23.20;99.90;;;;;;6158101;23;20385;-92
2022/08/16 01:55:30;;;;;;;10.90;8.47;;;23.10;99.90;;;;;;6157699;23;20417;-92
2022/08/16 01:57:55;;;;;;;10.60;8.20;;;23.10;99.90;;;;;;6157949;23;20436;-92
2022/08/16 02:00:21;;;;;;;11.03;8.30;;;23.10;99.90;;;;;;6157880;23;20437;-92
2022/08/16 02:02:47;;;;;;;10.50;7.80;;;23.00;99.90;;;;;;6157755;23;20500;-92
2022/08/16 02:05:13;;;;;;;10.23;8.13;;;23.00;99.90;;;;;;6158687;23;20446;-92
2022/08/16 02:07:39;;;;;;;11.17;7.90;;;23.00;99.90;;;;;;6162169;23;20219;-93
2022/08/16 02:10:06;;;;;;;11.73;9.03;;;23.00;99.90;;;;;;6133715;23;20226;-92
2022/08/16 02:12:33;;;;;;;10.20;8.87;;;23.00;99.90;;;;;;6135467;23;20392;-92
2022/08/16 02:14:59;;;;;;;9.60;7.50;;;23.00;99.90;;;;;;6158363;23;20432;-93
2022/08/16 02:17:25;;;;;;;10.97;8.27;;;22.90;99.90;;;;;;6133768;23;20495;-93
2022/08/16 02:19:52;;;;;;;9.20;7.60;;;22.90;99.90;;;;;;6133609;23;20492;-92
2022/08/16 02:22:21;;;;;;;11.30;8.97;;;22.80;99.90;;;;;;6134245;23;20398;-92
2022/08/16 02:24:47;;;;;;;11.77;8.73;;;22.80;99.90;;;;;;6134004;23;20484;-93
2022/08/16 02:27:13;;;;;;;10.90;8.40;;;22.80;99.90;;;;;;6134114;23;20400;-92
2022/08/16 02:29:40;;;;;;;9.00;7.63;;;22.70;99.90;;;;;;6134464;23;20389;-93
2022/08/16 02:32:07;;;;;;;11.40;8.10;;;22.70;99.90;;;;;;6134419;23;20401;-92
2022/08/16 02:34:33;;;;;;;11.00;7.83;;;22.70;99.90;;;;;;6159709;23;20463;-92
2022/08/16 02:36:58;;;;;;;9.50;7.23;;;22.60;99.90;;;;;;6133423;23;20442;-92
2022/08/16 02:39:24;;;;;;;12.17;8.07;;;22.60;99.90;;;;;;6158351;23;20171;-93
2022/08/16 02:41:51;;;;;;;10.00;7.00;;;22.50;99.90;;;;;;6133721;23;20527;-92
2022/08/16 02:44:18;;;;;;;10.23;7.97;;;22.50;99.90;;;;;;6134251;23;20433;-92
2022/08/16 02:46:44;;;;;;;11.67;8.70;;;22.40;99.90;;;;;;6133634;23;20488;-93
2022/08/16 02:49:11;;;;;;;10.03;7.93;;;22.40;99.90;;;;;;6159250;23;20882;-92
2022/08/16 02:51:38;;;;;;;12.80;9.33;;;22.40;99.90;;;;;;6134430;23;20424;-92
2022/08/16 02:54:05;;;;;;;14.93;9.23;;;22.40;99.90;;;;;;6135235;23;20430;-93
2022/08/16 02:56:31;;;;;;;12.47;9.77;;;22.40;99.90;;;;;;6135731;23;20915;-92
2022/08/16 02:58:57;;;;;;;11.33;7.20;;;22.40;99.90;;;;;;6136210;23;20396;-92
2022/08/16 03:01:27;;;;;;;10.53;8.90;;;22.40;99.90;;;;;;6160915;23;20461;-92
2022/08/16 03:03:54;;;;;;;10.97;8.20;;;22.40;99.90;;;;;;6134789;23;20166;-92
2022/08/16 03:06:21;;;;;;;12.80;8.80;;;22.40;99.90;;;;;;6136502;23;20404;-92
2022/08/16 03:08:48;;;;;;;9.33;8.20;;;22.30;99.90;;;;;;6166902;23;20468;-92
2022/08/16 03:11:16;;;;;;;9.23;7.60;;;22.30;99.90;;;;;;6160133;23;20898;-92
2022/08/16 03:13:46;;;;;;;13.07;9.53;;;22.30;99.90;;;;;;6157014;23;20389;-91
2022/08/16 03:16:12;;;;;;;10.60;8.20;;;22.30;99.90;;;;;;6156882;23;20458;-92
2022/08/16 03:18:39;;;;;;;9.43;7.87;;;22.20;99.90;;;;;;6156992;23;20468;-93
2022/08/16 03:21:06;;;;;;;13.90;9.83;;;22.30;99.90;;;;;;6156718;23;20187;-93
2022/08/16 03:23:32;;;;;;;12.70;9.53;;;22.30;99.90;;;;;;6157316;23;20436;-92
2022/08/16 03:25:57;;;;;;;11.13;9.17;;;22.30;99.90;;;;;;6157252;23;20432;-92
2022/08/16 03:28:23;;;;;;;15.13;8.70;;;22.30;99.90;;;;;;6157421;23;20425;-92
2022/08/16 03:30:49;;;;;;;11.17;9.00;;;22.30;99.90;;;;;;6157251;23;20274;-93
2022/08/16 03:33:15;;;;;;;11.00;8.07;;;22.30;99.90;;;;;;6157336;23;20166;-92
2022/08/16 03:35:41;;;;;;;12.10;8.93;;;22.30;99.90;;;;;;6157377;23;20180;-92
2022/08/16 03:38:11;;;;;;;10.83;8.37;;;22.30;99.90;;;;;;6157518;23;20171;-93
2022/08/16 03:40:37;;;;;;;12.70;9.10;;;22.30;99.90;;;;;;6157115;23;20421;-92
2022/08/16 03:43:05;;;;;;;12.37;9.80;;;22.30;99.90;;;;;;6157279;23;20890;-92
2022/08/16 03:45:35;;;;;;;10.77;9.37;;;22.30;99.90;;;;;;6157978;23;20428;-92
2022/08/16 03:48:01;;;;;;;40.40;24.40;;;22.30;99.90;;;;;;6161716;23;20392;-92
2022/08/16 03:50:28;;;;;;;54.43;32.40;;;22.30;99.90;;;;;;6171067;23;20413;-91
2022/08/16 03:52:54;;;;;;;17.03;12.00;;;22.30;99.90;;;;;;6168545;23;20396;-92
2022/08/16 03:55:20;;;;;;;13.27;9.47;;;22.40;99.90;;;;;;6170107;23;20409;-92
2022/08/16 03:57:47;;;;;;;13.30;10.50;;;22.30;99.90;;;;;;6155574;23;20203;-93
2022/08/16 04:00:16;;;;;;;11.20;8.63;;;22.40;99.90;;;;;;6157577;23;20402;-93
2022/08/16 04:02:43;;;;;;;13.00;9.40;;;22.40;99.90;;;;;;6156570;23;20369;-92
2022/08/16 04:05:11;;;;;;;10.83;8.50;;;22.40;99.90;;;;;;6155909;23;20401;-94
2022/08/16 04:07:37;;;;;;;12.93;8.13;;;22.40;99.90;;;;;;6156468;23;20475;-93
2022/08/16 04:10:05;;;;;;;11.80;8.73;;;22.40;99.90;;;;;;6157170;23;20405;-92
2022/08/16 04:12:31;;;;;;;13.03;9.30;;;22.40;99.90;;;;;;6157101;23;20893;-92
2022/08/16 04:14:56;;;;;;;14.30;8.70;;;22.40;99.90;;;;;;6156693;23;20413;-93
2022/08/16 04:17:22;;;;;;;10.43;8.80;;;22.40;99.90;;;;;;6157100;23;20191;-92
2022/08/16 04:19:49;;;;;;;14.77;9.87;;;22.40;99.90;;;;;;6156682;23;20202;-93
2022/08/16 04:22:15;;;;;;;13.20;8.93;;;22.40;99.90;;;;;;6157534;23;20240;-92
2022/08/16 04:24:40;;;;;;;10.80;8.43;;;22.40;99.90;;;;;;6158336;23;20417;-92
2022/08/16 04:27:06;;;;;;;11.33;8.77;;;22.40;99.90;;;;;;6157519;23;20389;-92
2022/08/16 04:29:32;;;;;;;11.80;8.43;;;22.40;99.90;;;;;;6157404;23;20236;-92
2022/08/16 04:31:58;;;;;;;11.23;8.63;;;22.40;99.90;;;;;;6157815;23;20225;-92
2022/08/16 04:34:32;;;;;;;16.17;9.53;;;22.40;99.90;;;;;;6158416;23;20424;-92
2022/08/16 04:36:58;;;;;;;10.60;8.97;;;22.40;99.90;;;;;;6158688;23;20498;-92
2022/08/16 04:39:29;;;;;;;13.33;10.07;;;22.40;99.90;;;;;;6160189;23;20401;-93
2022/08/16 04:41:55;;;;;;;10.13;9.03;;;22.50;99.90;;;;;;6157592;23;20404;-92
2022/08/16 04:44:21;;;;;;;14.77;9.30;;;22.50;99.90;;;;;;6156917;23;20883;-93
2022/08/16 04:46:48;;;;;;;11.40;8.90;;;22.50;99.90;;;;;;6156413;23;20405;-92
2022/08/16 04:49:14;;;;;;;10.47;8.27;;;22.50;99.90;;;;;;6156211;23;20413;-91
2022/08/16 04:51:42;;;;;;;10.40;7.53;;;22.60;99.90;;;;;;6156213;23;20401;-92
2022/08/16 04:54:09;;;;;;;13.23;9.47;;;22.60;99.90;;;;;;6155076;23;20186;-93
2022/08/16 04:56:35;;;;;;;12.87;9.27;;;22.60;99.90;;;;;;6158029;23;20468;-92
2022/08/16 04:59:01;;;;;;;12.33;8.63;;;22.60;99.90;;;;;;6155679;23;20384;-93
2022/08/16 05:01:27;;;;;;;10.30;8.70;;;22.70;99.90;;;;;;6156719;23;20407;-92
2022/08/16 05:03:53;;;;;;;12.43;8.23;;;22.60;99.90;;;;;;6157349;23;20597;-93
2022/08/16 05:06:19;;;;;;;11.13;8.87;;;22.70;99.90;;;;;;6157363;23;20393;-92
2022/08/16 05:08:44;;;;;;;12.00;9.50;;;22.70;99.90;;;;;;6159427;23;20203;-92
2022/08/16 05:11:12;;;;;;;10.70;8.50;;;22.70;99.90;;;;;;6156565;23;20512;-93
2022/08/16 05:13:42;;;;;;;10.97;8.20;;;22.70;99.90;;;;;;6156243;23;20159;-92
2022/08/16 05:16:18;;;;;;;10.80;8.43;;;22.70;99.90;;;;;;6158312;23;20453;-93
2022/08/16 05:18:45;;;;;;;13.30;10.30;;;22.80;99.90;;;;;;6156917;23;20389;-93
2022/08/16 05:21:11;;;;;;;9.50;8.13;;;22.80;99.90;;;;;;6156783;23;20421;-93
2022/08/16 05:23:37;;;;;;;9.23;7.67;;;22.80;99.90;;;;;;6156140;23;20389;-93
2022/08/16 05:26:03;;;;;;;130.27;73.33;;;22.80;99.90;;;;;;6158537;23;20183;-93
2022/08/16 05:28:29;;;;;;;390.03;207.47;;;22.90;99.90;;;;;;6157118;23;20159;-93
2022/08/16 05:30:55;;;;;;;65.60;46.97;;;22.90;99.90;;;;;;6156726;23;20746;-92
2022/08/16 05:33:21;;;;;;;25.60;18.77;;;23.00;99.90;;;;;;6158655;23;20160;-93
2022/08/16 05:35:47;;;;;;;21.23;14.97;;;23.00;99.90;;;;;;6158024;23;20504;-92
2022/08/16 05:38:13;;;;;;;23.30;16.40;;;23.10;99.90;;;;;;6159124;23;20382;-93
2022/08/16 05:40:39;;;;;;;9.27;7.47;;;23.10;99.90;;;;;;6160211;23;20448;-92
2022/08/16 05:43:05;;;;;;;8.50;6.73;;;23.20;99.90;;;;;;6155067;23;20440;-93
2022/08/16 05:45:31;;;;;;;8.17;6.73;;;23.20;99.90;;;;;;6155334;23;20215;-93
2022/08/16 05:47:57;;;;;;;11.03;8.43;;;23.30;99.90;;;;;;6155562;23;20390;-93
2022/08/16 05:50:23;;;;;;;8.63;6.83;;;23.40;99.90;;;;;;6155614;23;20403;-92
2022/08/16 05:52:49;;;;;;;8.13;7.27;;;23.40;99.90;;;;;;6156310;23;20161;-93
2022/08/16 05:55:14;;;;;;;8.90;7.60;;;23.50;99.90;;;;;;6155944;23;20922;-93
2022/08/16 05:57:40;;;;;;;7.87;7.07;;;23.60;99.90;;;;;;6157767;23;20193;-94
2022/08/16 06:00:09;;;;;;;11.50;8.30;;;23.60;99.90;;;;;;6157778;23;20267;-93
2022/08/16 06:02:35;;;;;;;8.33;7.20;;;23.70;99.90;;;;;;6157228;23;20243;-93
2022/08/16 06:05:02;;;;;;;9.50;6.97;;;23.80;99.90;;;;;;6154242;23;20406;-93
2022/08/16 06:07:28;;;;;;;8.93;7.30;;;23.90;99.90;;;;;;6098600;23;1314907;-93
2022/08/16 06:09:57;;;;;;;11.60;7.23;;;23.90;99.90;;;;;;6155504;23;20185;-92
2022/08/16 06:12:22;;;;;;;8.67;7.10;;;24.00;99.90;;;;;;6156425;23;20396;-92
2022/08/16 06:14:48;;;;;;;8.03;7.23;;;24.10;99.90;;;;;;6157650;23;20451;-92
2022/08/16 06:17:15;;;;;;;8.03;7.23;;;24.10;99.90;;;;;;6161258;23;20185;-93
2022/08/16 06:19:41;;;;;;;6.93;6.27;;;24.20;99.90;;;;;;6155712;23;20185;-92
2022/08/16 06:22:08;;;;;;;7.00;6.30;;;24.20;99.90;;;;;;6156334;23;20733;-92
2022/08/16 06:24:33;;;;;;;8.00;6.40;;;24.30;99.90;;;;;;6154933;23;20460;-92
2022/08/16 06:26:59;;;;;;;7.40;6.60;;;24.40;99.90;;;;;;6153356;23;20388;-92
2022/08/16 06:29:25;;;;;;;6.87;6.17;;;24.50;99.90;;;;;;6154838;23;20273;-93
2022/08/16 06:31:51;;;;;;;6.50;5.90;;;24.60;99.90;;;;;;6155528;23;20154;-92
2022/08/16 06:34:17;;;;;;;8.00;7.27;;;24.70;99.90;;;;;;6160244;23;20197;-92
2022/08/16 06:36:42;;;;;;;6.47;5.83;;;24.70;99.90;;;;;;6155077;23;20530;-93
2022/08/16 06:39:08;;;;;;;10.00;7.13;;;24.80;99.90;;;;;;6154243;23;20462;-93
2022/08/16 06:41:34;;;;;;;8.00;6.33;;;24.90;99.90;;;;;;6154632;23;20165;-92
2022/08/16 06:44:00;;;;;;;6.80;6.17;;;25.00;99.90;;;;;;6153978;23;20163;-93
2022/08/16 06:46:33;;;;;;;6.70;6.10;;;25.10;99.90;;;;;;6156900;23;20222;-92
2022/08/16 06:49:06;;;;;;;9.93;5.90;;;25.20;99.90;;;;;;6157843;23;20393;-92
2022/08/16 06:51:32;;;;;;;7.20;6.50;;;25.30;99.90;;;;;;6156580;23;20419;-93
2022/08/16 06:53:58;;;;;;;8.47;7.03;;;25.30;99.90;;;;;;6155188;23;20392;-93
2022/08/16 06:56:23;;;;;;;6.80;6.17;;;25.40;99.90;;;;;;6154709;23;20462;-93
2022/08/16 06:58:52;;;;;;;7.47;6.30;;;25.50;99.90;;;;;;6156103;23;20265;-93
2022/08/16 07:01:19;;;;;;;6.53;5.83;;;25.60;99.90;;;;;;6159648;23;20159;-94
2022/08/16 07:03:45;;;;;;;7.20;6.50;;;25.70;99.90;;;;;;6156436;23;20377;-93
2022/08/16 07:06:11;;;;;;;5.97;5.40;;;25.80;99.90;;;;;;6153262;23;20966;-93
2022/08/16 07:08:37;;;;;;;8.17;6.27;;;25.90;99.90;;;;;;6135548;23;20211;-93
2022/08/16 07:11:04;;;;;;;6.10;5.50;;;26.00;99.90;;;;;;6126537;23;20511;-95
2022/08/16 07:13:30;;;;;;;6.50;5.90;;;26.00;99.90;;;;;;6127397;23;20409;-94
2022/08/16 07:15:58;;;;;;;5.60;5.10;;;26.10;99.90;;;;;;6154271;23;20878;-94
2022/08/16 07:18:24;;;;;;;6.17;5.20;;;26.20;99.90;;;;;;6155717;23;20381;-94
2022/08/16 07:20:52;;;;;;;6.33;5.40;;;26.30;99.90;;;;;;6149909;23;20425;-94
2022/08/16 07:23:18;;;;;;;9.53;5.93;;;26.40;99.90;;;;;;6126105;23;20393;-93
2022/08/16 07:25:45;;;;;;;6.30;5.70;;;26.50;99.90;;;;;;6154213;23;20504;-94
2022/08/16 07:28:13;;;;;;;5.73;5.23;;;26.60;99.90;;;;;;6128619;23;20480;-93
2022/08/16 07:30:39;;;;;;;6.10;5.47;;;26.70;99.90;;;;;;6132522;23;20420;-94
2022/08/16 07:33:06;;;;;;;5.50;5.00;;;26.90;99.90;;;;;;6129488;23;20389;-94
2022/08/16 07:35:32;;;;;;;5.20;4.70;;;26.90;99.90;;;;;;6153714;23;20405;-94
2022/08/16 07:37:58;;;;;;;6.40;5.80;;;27.10;99.90;;;;;;6131048;23;20829;-94
2022/08/16 07:40:24;;;;;;;5.33;4.83;;;27.10;99.90;;;;;;6131487;23;20183;-94
2022/08/16 07:42:52;;;;;;;5.70;5.20;;;27.20;99.90;;;;;;6130823;23;20389;-94
2022/08/16 07:45:17;;;;;;;6.87;5.40;;;27.40;99.90;;;;;;6134891;23;20417;-93
2022/08/16 07:47:43;;;;;;;5.70;5.10;;;27.50;99.90;;;;;;6128529;23;20867;-93
2022/08/16 07:50:13;;;;;;;5.90;5.30;;;27.50;99.90;;;;;;6128725;23;20194;-94
2022/08/16 07:52:39;;;;;;;6.33;5.50;;;27.60;99.90;;;;;;6128319;23;20392;-94
2022/08/16 07:55:06;;;;;;;6.83;5.13;;;27.70;99.90;;;;;;6129001;23;20932;-94
2022/08/16 07:57:32;;;;;;;6.10;5.60;;;27.80;99.90;;;;;;6134793;23;20457;-94
2022/08/16 07:59:59;;;;;;;8.63;5.37;;;27.90;99.90;;;;;;6111101;23;20413;-94
2022/08/16 08:02:27;;;;;;;6.03;5.27;;;28.00;99.90;;;;;;6131781;23;20160;-94
2022/08/16 08:04:56;;;;;;;5.97;5.47;;;28.10;99.90;;;;;;6094275;23;20495;-93
2022/08/16 08:07:28;;;;;;;6.07;5.30;;;28.20;99.90;;;;;;6098534;23;20485;-94
2022/08/16 08:10:12;;;;;;;5.67;5.07;;;28.30;99.90;;;;;;6121921;23;20446;-93
2022/08/16 08:12:41;;;;;;;5.33;4.83;;;28.40;99.90;;;;;;6131610;23;20384;-94
2022/08/16 08:15:09;;;;;;;6.07;5.17;;;28.50;99.90;;;;;;6138936;23;20417;-92
2022/08/16 08:17:37;;;;;;;6.57;5.00;;;28.60;99.90;;;;;;6121190;23;20451;-92
2022/08/16 08:20:05;;;;;;;5.37;4.97;;;28.70;99.90;;;;;;6124623;23;20397;-91
2022/08/16 08:22:31;;;;;;;5.20;4.80;;;28.80;99.90;;;;;;6123803;23;20389;-92
2022/08/16 08:24:57;;;;;;;8.90;8.00;;;28.90;99.90;;;;;;6123837;23;20578;-92
2022/08/16 08:27:23;;;;;;;6.17;5.60;;;29.00;99.90;;;;;;6125790;23;20397;-92
2022/08/16 08:29:49;;;;;;;5.30;4.80;;;29.00;99.90;;;;;;6123161;23;20201;-94
2022/08/16 08:32:15;;;;;;;4.80;4.40;;;29.20;99.90;;;;;;6126661;23;20194;-93
2022/08/16 08:34:40;;;;;;;5.20;4.53;;;29.20;99.10;;;;;;6122090;23;20804;-94
2022/08/16 08:37:06;;;;;;;5.50;4.97;;;29.40;99.10;;;;;;6125321;23;20246;-92
2022/08/16 08:39:33;;;;;;;4.83;4.43;;;29.50;99.40;;;;;;6124533;23;20187;-93
2022/08/16 08:42:01;;;;;;;4.73;3.90;;;29.50;98.80;;;;;;6136410;23;20466;-92
2022/08/16 08:44:27;;;;;;;4.47;4.10;;;29.60;98.10;;;;;;6155402;23;20478;-93
2022/08/16 08:46:56;;;;;;;4.57;4.17;;;29.70;97.80;;;;;;6158255;23;20389;-92
2022/08/16 08:49:22;;;;;;;5.07;4.67;;;29.80;97.80;;;;;;6165381;23;20413;-92
2022/08/16 08:51:48;;;;;;;4.13;3.83;;;29.90;98.00;;;;;;6164000;23;20926;-92
2022/08/16 08:54:13;;;;;;;4.43;4.03;;;29.90;96.70;;;;;;6168742;23;20415;-93
2022/08/16 08:56:40;;;;;;;4.87;4.40;;;30.10;95.60;;;;;;6161191;23;20193;-92
2022/08/16 08:59:12;;;;;;;4.87;4.30;;;30.10;95.30;;;;;;6158876;23;20163;-92
2022/08/16 09:01:40;;;;;;;4.70;4.30;;;30.30;94.60;;;;;;6155350;23;20386;-93
2022/08/16 09:04:06;;;;;;;5.93;4.10;;;30.30;95.10;;;;;;6154665;23;20390;-92
2022/08/16 09:06:34;;;;;;;5.10;4.13;;;30.40;95.60;;;;;;6153254;23;20988;-92
2022/08/16 09:09:01;;;;;;;7.10;3.43;;;30.60;95.60;;;;;;6156370;23;20928;-94
2022/08/16 09:11:27;;;;;;;4.50;4.10;;;30.80;93.60;;;;;;6160735;23;20414;-94
2022/08/16 09:13:53;;;;;;;3.63;3.33;;;31.20;92.60;;;;;;6157714;23;20393;-94
2022/08/16 09:16:19;;;;;;;5.20;3.83;;;31.40;91.80;;;;;;6155094;23;20448;-93
2022/08/16 09:18:45;;;;;;;3.53;3.23;;;31.50;91.00;;;;;;6154033;23;20162;-94
2022/08/16 09:21:14;;;;;;;4.70;4.00;;;31.50;90.70;;;;;;6153466;23;20954;-94
2022/08/16 09:23:40;;;;;;;6.03;4.53;;;31.60;91.60;;;;;;6157363;23;20476;-93
2022/08/16 09:26:09;;;;;;;3.73;3.43;;;31.50;91.80;;;;;;6150977;23;20518;-94
2022/08/16 09:28:36;;;;;;;3.80;3.50;;;31.60;91.20;;;;;;6153075;23;20420;-94
2022/08/16 09:31:06;;;;;;;4.93;3.80;;;31.50;91.80;;;;;;6152212;23;20424;-95
2022/08/16 09:33:37;;;;;;;4.07;3.40;;;31.50;90.90;;;;;;6152231;23;20400;-94
2022/08/16 09:36:07;;;;;;;7.13;4.17;;;31.40;91.70;;;;;;6153856;23;20902;-93
2022/08/16 09:38:34;;;;;;;4.40;3.70;;;31.40;91.70;;;;;;6155723;23;20396;-93
2022/08/16 09:41:02;;;;;;;3.70;3.40;;;31.40;92.10;;;;;;6152206;23;20449;-94
2022/08/16 09:43:29;;;;;;;7.77;3.93;;;31.40;92.20;;;;;;6153838;23;20398;-94
2022/08/16 09:45:59;;;;;;;3.93;3.53;;;31.40;91.00;;;;;;6153606;23;20471;-93
2022/08/16 09:48:25;;;;;;;3.50;3.20;;;31.40;91.90;;;;;;6155552;23;20407;-93
2022/08/16 09:50:51;;;;;;;3.93;3.63;;;31.30;91.90;;;;;;6158038;23;20443;-93
2022/08/16 09:53:22;;;;;;;5.53;4.23;;;31.20;91.90;;;;;;6161316;23;20460;-93
2022/08/16 09:55:52;;;;;;;4.40;4.00;;;31.20;90.00;;;;;;6154243;23;20799;-93
2022/08/16 09:58:22;;;;;;;5.47;4.83;;;31.30;89.50;;;;;;6154460;23;20962;-94
2022/08/16 10:00:50;;;;;;;4.17;3.77;;;31.30;90.00;;;;;;6159698;23;20457;-93
2022/08/16 10:03:19;;;;;;;3.60;3.30;;;31.30;90.00;;;;;;6154640;23;20404;-94
2022/08/16 10:05:46;;;;;;;4.43;3.50;;;31.30;90.70;;;;;;6153267;23;20424;-93
2022/08/16 10:08:15;;;;;;;4.20;3.80;;;31.30;91.20;;;;;;6128718;23;20441;-95
2022/08/16 10:13:33;;;;;;;51.23;35.40;;;31.30;90.50;;;;;;6154880;23;20776;-93
2022/08/16 10:15:59;;;;;;;5.70;5.20;;;31.30;91.00;;;;;;6150896;23;20422;-95
2022/08/16 10:18:28;;;;;;;5.90;4.87;;;31.30;90.80;;;;;;6158259;23;21033;-94
2022/08/16 10:20:54;;;;;;;5.80;4.67;;;31.30;89.60;;;;;;6153028;23;20401;-93
2022/08/16 10:23:21;;;;;;;5.80;4.30;;;31.30;90.20;;;;;;6155152;23;20402;-94
2022/08/16 10:25:48;;;;;;;4.50;4.10;;;31.40;90.00;;;;;;6156464;23;20402;-94
2022/08/16 10:28:15;;;;;;;4.20;3.90;;;31.40;88.10;;;;;;6155471;23;20404;-93
2022/08/16 10:30:42;;;;;;;4.77;4.37;;;31.40;89.30;;;;;;6154056;23;20405;-93
2022/08/16 10:33:08;;;;;;;4.33;3.93;;;31.40;89.40;;;;;;6153526;23;20167;-93
2022/08/16 10:35:34;;;;;;;4.70;4.30;;;31.50;90.00;;;;;;6155378;23;20429;-93
2022/08/16 10:38:00;;;;;;;4.83;4.47;;;31.50;90.50;;;;;;6156465;23;20456;-92
2022/08/16 10:40:26;;;;;;;5.40;4.53;;;31.50;90.30;;;;;;6154225;23;20186;-93
2022/08/16 10:43:18;;;;;;;4.50;4.10;;;31.50;89.90;;;;;;6158111;23;20412;-93
2022/08/16 10:45:47;;;;;;;4.77;4.37;;;31.50;90.00;;;;;;6157274;23;20424;-94
2022/08/16 10:48:13;;;;;;;4.83;4.37;;;31.50;90.40;;;;;;6154265;23;20475;-94
2022/08/16 10:50:39;;;;;;;6.70;3.90;;;31.50;88.30;;;;;;6163893;23;20432;-94
2022/08/16 10:53:05;;;;;;;4.23;3.93;;;31.60;87.50;;;;;;6153373;23;20843;-92
2022/08/16 10:56:01;;;;;;;4.00;3.70;;;31.60;88.00;;;;;;6155288;23;20413;-93
2022/08/16 10:58:27;;;;;;;5.80;4.30;;;31.60;88.50;;;;;;6151536;23;20397;-93
2022/08/16 11:00:53;;;;;;;5.10;4.70;;;31.60;88.50;;;;;;6154239;23;20445;-93
2022/08/16 11:03:19;;;;;;;4.90;4.50;;;31.70;86.30;;;;;;6153556;23;20400;-92
2022/08/16 11:05:45;;;;;;;3.67;3.37;;;31.80;85.70;;;;;;6155356;23;20206;-94
2022/08/16 11:08:11;;;;;;;6.97;4.80;;;31.70;87.10;;;;;;6158131;23;20522;-93
2022/08/16 11:10:44;;;;;;;4.73;4.20;;;31.70;87.70;;;;;;6161805;23;20424;-93
2022/08/16 11:13:12;;;;;;;4.60;3.60;;;31.70;84.70;;;;;;6153173;23;20378;-93
2022/08/16 11:15:38;;;;;;;4.90;4.40;;;31.80;86.50;;;;;;6157121;23;20487;-92
2022/08/16 11:18:05;;;;;;;4.47;4.17;;;31.70;87.60;;;;;;6157917;23;20433;-93
2022/08/16 11:20:31;;;;;;;5.63;4.40;;;31.80;84.60;;;;;;6155088;23;20187;-93
2022/08/16 11:22:58;;;;;;;4.70;3.80;;;31.90;83.60;;;;;;6155410;23;20736;-93
2022/08/16 11:25:27;;;;;;;4.17;3.73;;;31.90;84.10;;;;;;6151993;23;20175;-93
2022/08/16 11:27:54;;;;;;;4.80;4.00;;;32.00;84.00;;;;;;6156880;23;20477;-93
2022/08/16 11:30:20;;;;;;;4.40;4.00;;;32.10;83.30;;;;;;6153432;23;20461;-91
2022/08/16 11:32:46;;;;;;;5.80;3.80;;;32.10;83.70;;;;;;6152623;23;20400;-93
2022/08/16 11:35:18;;;;;;;5.13;4.73;;;32.20;84.30;;;;;;6150412;23;20393;-92
2022/08/16 11:37:47;;;;;;;4.47;4.17;;;32.20;83.80;;;;;;6149196;23;20191;-93
2022/08/16 11:40:15;;;;;;;5.97;4.47;;;32.20;84.60;;;;;;6153606;23;20452;-93
2022/08/16 11:42:41;;;;;;;4.30;3.90;;;32.20;83.40;;;;;;6151953;23;20741;-93
2022/08/16 11:45:08;;;;;;;4.63;4.23;;;32.00;86.10;;;;;;6150103;23;20738;-93
2022/08/16 11:47:33;;;;;;;5.37;4.80;;;32.00;84.10;;;;;;6151873;23;20385;-93
2022/08/16 11:49:59;;;;;;;5.40;4.87;;;32.00;83.40;;;;;;6149279;23;20743;-93
2022/08/16 11:52:25;;;;;;;5.27;4.77;;;32.10;84.20;;;;;;6156079;23;20177;-93
2022/08/16 11:54:51;;;;;;;4.57;4.17;;;32.00;85.50;;;;;;6157695;23;20175;-93
2022/08/16 11:57:17;;;;;;;4.90;4.50;;;32.00;85.30;;;;;;6162649;23;20460;-93
2022/08/16 11:59:42;;;;;;;5.60;4.40;;;32.00;85.00;;;;;;6151997;23;20409;-94
2022/08/16 12:02:09;;;;;;;5.13;4.63;;;31.90;84.00;;;;;;6151863;23;20163;-93
2022/08/16 12:04:35;;;;;;;5.27;4.77;;;31.90;82.90;;;;;;6151782;23;20175;-93
2022/08/16 12:07:03;;;;;;;5.67;5.07;;;31.90;83.10;;;;;;6151581;23;20432;-94
2022/08/16 12:09:29;;;;;;;5.00;3.73;;;31.90;89.80;;;;;;6125023;23;20425;-92
2022/08/16 12:11:56;;;;;;;6.07;4.80;;;31.80;90.00;;;;;;6126469;23;20400;-93
2022/08/16 12:14:21;;;;;;;5.47;4.60;;;31.70;90.70;;;;;;6133441;23;20389;-93
2022/08/16 12:16:47;;;;;;;4.27;3.97;;;31.50;91.70;;;;;;6136306;23;20546;-92
2022/08/16 12:19:14;;;;;;;4.70;3.90;;;31.10;89.80;;;;;;6155097;23;20190;-93
2022/08/16 12:21:41;;;;;;;3.43;3.13;;;30.80;90.20;;;;;;6131341;23;20396;-93
2022/08/16 12:24:07;;;;;;;3.93;3.57;;;30.40;88.60;;;;;;6132107;23;20415;-93
2022/08/16 12:26:33;;;;;;;3.87;3.57;;;30.30;88.90;;;;;;6130948;23;20474;-93
2022/08/16 12:29:00;;;;;;;4.60;4.20;;;30.20;90.30;;;;;;6130075;23;20392;-93
2022/08/16 12:31:26;;;;;;;4.67;3.43;;;30.20;90.20;;;;;;6129858;23;20464;-93
2022/08/16 12:33:52;;;;;;;5.27;3.90;;;30.20;91.30;;;;;;6128378;23;20393;-93
2022/08/16 12:36:19;;;;;;;3.83;3.50;;;30.20;90.00;;;;;;6129114;23;20442;-94
2022/08/16 12:38:45;;;;;;;4.13;3.80;;;30.20;90.50;;;;;;6130363;23;20387;-93
2022/08/16 12:41:12;;;;;;;5.00;4.60;;;30.30;91.10;;;;;;6134613;23;20419;-93
2022/08/16 12:43:41;;;;;;;3.97;3.67;;;30.30;91.00;;;;;;6125998;23;20399;-93
2022/08/16 12:46:09;;;;;;;4.40;4.00;;;30.30;92.10;;;;;;6116241;23;20419;-91